createdAt,value
2023-04-20T00:00:20.189Z,2.50
2023-04-20T00:00:52.638Z,3.10
2023-04-20T00:01:25.099Z,2.80
2023-04-20T00:01:57.581Z,2.70
2023-04-20T00:02:30.180Z,2.50
2023-04-20T00:03:02.635Z,2.70
2023-04-20T00:03:35.042Z,2.80
2023-04-20T00:04:07.453Z,3.20
2023-04-20T00:04:39.845Z,3.40
2023-04-20T00:05:12.315Z,2.80
2023-04-20T00:05:44.653Z,2.90
2023-04-20T00:06:17.109Z,3.50
2023-04-20T00:06:49.539Z,3.70
2023-04-20T00:07:21.972Z,3.00
2023-04-20T00:07:54.426Z,2.50
2023-04-20T00:08:26.854Z,2.80
2023-04-20T00:08:59.281Z,3.00
2023-04-20T00:09:31.762Z,2.90
2023-04-20T00:10:04.217Z,2.70
2023-04-20T00:10:36.652Z,2.40
2023-04-20T00:11:09.089Z,2.30
2023-04-20T00:11:41.488Z,2.30
2023-04-20T00:12:13.908Z,2.70
2023-04-20T00:12:46.396Z,3.30
2023-04-20T00:13:18.851Z,3.50
2023-04-20T00:13:51.303Z,3.10
2023-04-20T00:14:23.719Z,2.60
2023-04-20T00:14:56.157Z,3.00
2023-04-20T00:15:28.596Z,2.80
2023-04-20T00:16:01.116Z,2.80
2023-04-20T00:16:33.624Z,2.80
2023-04-20T00:17:06.143Z,2.70
2023-04-20T00:17:38.722Z,2.90
2023-04-20T00:18:10.989Z,2.70
2023-04-20T00:18:43.424Z,2.70
2023-04-20T00:19:16.112Z,2.80
2023-04-20T00:19:48.356Z,2.60
2023-04-20T00:20:20.785Z,2.80
2023-04-20T00:20:53.246Z,2.80
2023-04-20T00:21:25.703Z,2.80
2023-04-20T00:21:58.131Z,2.50
2023-04-20T00:22:30.581Z,2.40
2023-04-20T00:23:03.049Z,2.60
2023-04-20T00:23:35.480Z,2.40
2023-04-20T00:24:07.923Z,2.50
2023-04-20T00:24:40.448Z,2.80
2023-04-20T00:25:12.903Z,2.60
2023-04-20T00:25:45.413Z,3.20
2023-04-20T00:26:17.860Z,3.70
2023-04-20T00:26:50.305Z,3.70
2023-04-20T00:27:22.750Z,3.40
2023-04-20T00:27:55.242Z,2.80
2023-04-20T00:28:27.713Z,2.80
2023-04-20T00:29:00.177Z,3.00
2023-04-20T00:29:32.866Z,2.80
2023-04-20T00:30:05.302Z,2.90
2023-04-20T00:30:37.770Z,2.70
2023-04-20T00:31:10.305Z,2.70
2023-04-20T00:31:42.692Z,2.70
2023-04-20T00:32:15.102Z,2.70
2023-04-20T00:32:47.647Z,2.60
2023-04-20T00:33:20.003Z,2.70
2023-04-20T00:33:52.469Z,2.70
2023-04-20T00:34:24.943Z,2.70
2023-04-20T00:34:57.433Z,3.10
2023-04-20T00:35:29.891Z,3.30
2023-04-20T00:36:02.383Z,3.00
2023-04-20T00:36:34.797Z,3.00
2023-04-20T00:37:07.256Z,3.40
2023-04-20T00:37:39.829Z,3.50
2023-04-20T00:38:12.282Z,3.40
2023-04-20T00:38:44.793Z,3.30
2023-04-20T00:39:17.458Z,3.20
2023-04-20T00:39:49.648Z,2.80
2023-04-20T00:40:22.093Z,2.90
2023-04-20T00:40:54.589Z,2.80
2023-04-20T00:41:27.047Z,2.60
2023-04-20T00:41:59.515Z,2.70
2023-04-20T00:42:32.027Z,2.90
2023-04-20T00:43:04.448Z,3.20
2023-04-20T00:43:36.913Z,3.10
2023-04-20T00:44:09.376Z,2.80
2023-04-20T00:44:41.832Z,2.60
2023-04-20T00:45:14.270Z,2.50
2023-04-20T00:45:46.755Z,3.10
2023-04-20T00:46:19.263Z,3.20
2023-04-20T00:46:51.737Z,2.90
2023-04-20T00:47:24.145Z,3.00
2023-04-20T00:47:56.714Z,3.10
2023-04-20T00:48:29.112Z,3.20
2023-04-20T00:49:01.591Z,3.40
2023-04-20T00:49:34.051Z,3.00
2023-04-20T00:50:06.538Z,3.20
2023-04-20T00:50:39.045Z,3.40
2023-04-20T00:51:11.467Z,3.40
2023-04-20T00:51:44.452Z,3.40
2023-04-20T00:52:16.904Z,3.20
2023-04-20T00:52:49.352Z,3.20
2023-04-20T00:53:21.809Z,3.40
2023-04-20T00:53:54.286Z,3.50
2023-04-20T00:54:26.702Z,3.50
2023-04-20T00:54:59.152Z,3.50
2023-04-20T00:55:31.580Z,3.50
2023-04-20T00:56:04.040Z,3.30
2023-04-20T00:56:36.476Z,3.10
2023-04-20T00:57:08.931Z,3.10
2023-04-20T00:57:41.388Z,3.30
2023-04-20T00:58:13.831Z,2.90
2023-04-20T00:58:46.297Z,2.80
2023-04-20T00:59:18.964Z,3.00
2023-04-20T00:59:51.260Z,3.30
2023-04-20T01:00:23.699Z,3.60
2023-04-20T01:00:56.169Z,3.30
2023-04-20T01:01:28.692Z,3.00
2023-04-20T01:02:01.172Z,2.80
2023-04-20T01:02:33.597Z,3.00
2023-04-20T01:03:06.241Z,3.10
2023-04-20T01:03:38.577Z,3.20
2023-04-20T01:04:10.989Z,3.50
2023-04-20T01:04:43.361Z,3.40
2023-04-20T01:05:15.846Z,3.40
2023-04-20T01:05:48.321Z,3.20
2023-04-20T01:06:20.768Z,3.00
2023-04-20T01:06:53.224Z,3.20
2023-04-20T01:07:25.795Z,3.20
2023-04-20T01:07:58.234Z,3.90
2023-04-20T01:08:30.730Z,4.10
2023-04-20T01:09:03.218Z,3.50
2023-04-20T01:09:35.638Z,3.60
2023-04-20T01:10:08.104Z,3.60
2023-04-20T01:10:40.558Z,3.40
2023-04-20T01:11:13.049Z,3.20
2023-04-20T01:11:45.475Z,3.20
2023-04-20T01:12:17.945Z,3.20
2023-04-20T01:12:50.397Z,3.50
2023-04-20T01:13:22.977Z,3.40
2023-04-20T01:13:55.471Z,3.20
2023-04-20T01:14:27.969Z,3.20
2023-04-20T01:15:00.444Z,3.20
2023-04-20T01:15:33.638Z,3.50
2023-04-20T01:16:06.124Z,3.30
2023-04-20T01:16:38.621Z,3.40
2023-04-20T01:17:11.135Z,3.30
2023-04-20T01:17:43.685Z,3.50
2023-04-20T01:18:16.210Z,3.40
2023-04-20T01:18:48.778Z,3.20
2023-04-20T01:19:21.350Z,3.80
2023-04-20T01:19:53.863Z,3.50
2023-04-20T01:20:26.419Z,3.70
2023-04-20T01:20:58.949Z,3.40
2023-04-20T01:21:31.462Z,3.20
2023-04-20T01:22:04.004Z,3.40
2023-04-20T01:22:36.523Z,3.70
2023-04-20T01:23:09.074Z,3.90
2023-04-20T01:23:41.576Z,4.60
2023-04-20T01:24:14.086Z,4.80
2023-04-20T01:24:46.651Z,3.80
2023-04-20T01:25:19.188Z,4.00
2023-04-20T01:25:51.791Z,3.60
2023-04-20T01:26:24.305Z,3.50
2023-04-20T01:26:56.829Z,4.00
2023-04-20T01:27:29.338Z,3.90
2023-04-20T01:28:01.820Z,3.80
2023-04-20T01:28:34.316Z,3.70
2023-04-20T01:29:06.821Z,3.60
2023-04-20T01:29:39.398Z,3.50
2023-04-20T01:30:11.905Z,3.30
2023-04-20T01:30:44.423Z,3.10
2023-04-20T01:31:17.010Z,3.90
2023-04-20T01:31:49.528Z,4.20
2023-04-20T01:32:22.038Z,3.80
2023-04-20T01:32:54.549Z,4.00
2023-04-20T01:33:27.027Z,3.80
2023-04-20T01:33:59.561Z,3.60
2023-04-20T01:34:32.088Z,3.40
2023-04-20T01:35:04.581Z,3.50
2023-04-20T01:35:37.096Z,3.50
2023-04-20T01:36:09.661Z,3.50
2023-04-20T01:36:42.183Z,3.30
2023-04-20T01:37:14.693Z,3.40
2023-04-20T01:37:47.226Z,3.60
2023-04-20T01:38:19.755Z,3.40
2023-04-20T01:38:52.260Z,3.40
2023-04-20T01:39:24.751Z,3.90
2023-04-20T01:39:57.255Z,4.10
2023-04-20T01:40:29.737Z,3.90
2023-04-20T01:41:02.246Z,3.30
2023-04-20T01:41:34.812Z,3.40
2023-04-20T01:42:07.337Z,3.50
2023-04-20T01:42:39.832Z,3.60
2023-04-20T01:43:12.349Z,3.70
2023-04-20T01:43:44.854Z,3.90
2023-04-20T01:44:17.386Z,3.80
2023-04-20T01:44:49.883Z,3.30
2023-04-20T01:45:22.393Z,3.30
2023-04-20T01:45:54.896Z,3.60
2023-04-20T01:46:27.450Z,3.30
2023-04-20T01:47:00.030Z,3.50
2023-04-20T01:47:32.398Z,3.70
2023-04-20T01:48:05.071Z,3.70
2023-04-20T01:48:37.475Z,3.30
2023-04-20T01:49:10.033Z,3.10
2023-04-20T01:49:42.575Z,4.30
2023-04-20T01:50:15.094Z,4.30
2023-04-20T01:50:47.658Z,3.70
2023-04-20T01:51:20.189Z,3.70
2023-04-20T01:51:52.692Z,3.50
2023-04-20T01:52:25.201Z,3.60
2023-04-20T01:52:57.727Z,3.30
2023-04-20T01:53:30.226Z,3.60
2023-04-20T01:54:02.699Z,3.70
2023-04-20T01:54:35.228Z,3.80
2023-04-20T01:55:07.727Z,3.20
2023-04-20T01:55:40.272Z,3.10
2023-04-20T01:56:12.756Z,4.20
2023-04-20T01:56:45.359Z,4.40
2023-04-20T01:57:17.766Z,3.60
2023-04-20T01:57:50.266Z,3.60
2023-04-20T01:58:22.798Z,3.40
2023-04-20T01:58:55.307Z,3.50
2023-04-20T01:59:27.823Z,3.50
2023-04-20T02:00:00.322Z,3.20
2023-04-20T02:00:32.843Z,3.70
2023-04-20T02:01:05.343Z,4.00
2023-04-20T02:01:37.869Z,3.70
2023-04-20T02:02:10.510Z,3.70
2023-04-20T02:02:42.986Z,3.50
2023-04-20T02:03:15.587Z,3.60
2023-04-20T02:03:48.069Z,3.60
2023-04-20T02:04:20.412Z,3.70
2023-04-20T02:04:52.923Z,3.30
2023-04-20T02:05:25.444Z,3.40
2023-04-20T02:05:57.958Z,3.90
2023-04-20T02:06:30.462Z,3.60
2023-04-20T02:07:02.998Z,3.70
2023-04-20T02:07:35.509Z,3.70
2023-04-20T02:08:08.032Z,3.40
2023-04-20T02:08:40.548Z,3.70
2023-04-20T02:09:13.073Z,3.80
2023-04-20T02:09:45.581Z,3.50
2023-04-20T02:10:18.099Z,3.50
2023-04-20T02:10:50.635Z,3.70
2023-04-20T02:11:23.153Z,3.80
2023-04-20T02:11:55.697Z,4.00
2023-04-20T02:12:28.215Z,4.20
2023-04-20T02:13:00.742Z,3.70
2023-04-20T02:13:33.309Z,3.70
2023-04-20T02:14:05.779Z,3.90
2023-04-20T02:14:38.352Z,3.70
2023-04-20T02:15:10.864Z,3.60
2023-04-20T02:15:43.394Z,4.00
2023-04-20T02:16:15.909Z,4.30
2023-04-20T02:16:48.491Z,4.00
2023-04-20T02:17:21.146Z,3.60
2023-04-20T02:17:53.536Z,3.70
2023-04-20T02:18:25.998Z,3.60
2023-04-20T02:18:58.517Z,3.80
2023-04-20T02:19:31.031Z,4.00
2023-04-20T02:20:03.560Z,3.50
2023-04-20T02:20:36.087Z,3.50
2023-04-20T02:21:08.607Z,3.90
2023-04-20T02:21:41.112Z,3.40
2023-04-20T02:22:13.613Z,3.20
2023-04-20T02:22:46.165Z,3.30
2023-04-20T02:23:18.666Z,3.50
2023-04-20T02:23:51.189Z,3.90
2023-04-20T02:24:23.729Z,3.90
2023-04-20T02:24:56.256Z,4.00
2023-04-20T02:25:28.771Z,4.00
2023-04-20T02:26:01.286Z,3.60
2023-04-20T02:26:33.815Z,3.30
2023-04-20T02:27:06.306Z,3.30
2023-04-20T02:27:38.818Z,3.00
2023-04-20T02:28:11.324Z,3.50
2023-04-20T02:28:43.857Z,3.50
2023-04-20T02:29:16.679Z,3.20
2023-04-20T02:29:49.009Z,4.30
2023-04-20T02:30:21.514Z,4.60
2023-04-20T02:30:54.081Z,3.70
2023-04-20T02:31:26.622Z,3.50
2023-04-20T02:31:59.055Z,3.40
2023-04-20T02:32:31.599Z,3.30
2023-04-20T02:33:04.102Z,3.30
2023-04-20T02:33:36.585Z,3.50
2023-04-20T02:34:09.135Z,3.80
2023-04-20T02:34:41.652Z,4.00
2023-04-20T02:35:14.190Z,3.40
2023-04-20T02:35:46.760Z,3.90
2023-04-20T02:36:19.259Z,4.10
2023-04-20T02:36:51.843Z,3.50
2023-04-20T02:37:24.323Z,3.00
2023-04-20T02:37:56.829Z,3.10
2023-04-20T02:38:29.346Z,3.60
2023-04-20T02:39:01.859Z,3.70
2023-04-20T02:39:34.366Z,4.00
2023-04-20T02:40:07.009Z,4.30
2023-04-20T02:40:39.384Z,3.90
2023-04-20T02:41:11.870Z,3.60
2023-04-20T02:41:44.410Z,3.70
2023-04-20T02:42:16.915Z,4.30
2023-04-20T02:42:49.466Z,3.80
2023-04-20T02:43:22.014Z,3.60
2023-04-20T02:43:54.567Z,3.30
2023-04-20T02:44:27.057Z,3.50
2023-04-20T02:44:59.559Z,3.60
2023-04-20T02:45:32.109Z,3.70
2023-04-20T02:46:04.945Z,3.60
2023-04-20T02:46:37.449Z,3.60
2023-04-20T02:47:09.908Z,3.30
2023-04-20T02:47:42.482Z,4.00
2023-04-20T02:48:14.989Z,4.30
2023-04-20T02:48:47.496Z,4.10
2023-04-20T02:49:20.063Z,3.80
2023-04-20T02:49:52.706Z,4.20
2023-04-20T02:50:25.239Z,3.80
2023-04-20T02:50:57.745Z,3.80
2023-04-20T02:51:30.281Z,3.80
2023-04-20T02:52:02.847Z,4.00
2023-04-20T02:52:35.389Z,4.20
2023-04-20T02:53:07.962Z,3.90
2023-04-20T02:53:40.479Z,4.10
2023-04-20T02:54:13.085Z,4.20
2023-04-20T02:54:45.604Z,3.90
2023-04-20T02:55:18.153Z,4.00
2023-04-20T02:55:50.712Z,3.20
2023-04-20T02:56:23.283Z,3.40
2023-04-20T02:56:57.214Z,3.50
2023-04-20T02:57:28.350Z,4.20
2023-04-20T02:58:00.870Z,4.60
2023-04-20T02:58:33.476Z,3.60
2023-04-20T02:59:05.981Z,3.00
2023-04-20T02:59:38.511Z,3.40
2023-04-20T03:00:11.028Z,3.40
2023-04-20T03:00:43.543Z,3.50
2023-04-20T03:01:16.111Z,3.40
2023-04-20T03:01:48.628Z,3.60
2023-04-20T03:02:21.261Z,3.60
2023-04-20T03:02:53.753Z,3.70
2023-04-20T03:03:26.186Z,3.40
2023-04-20T03:03:58.746Z,3.60
2023-04-20T03:04:31.365Z,3.50
2023-04-20T03:05:03.710Z,3.60
2023-04-20T03:05:36.245Z,4.00
2023-04-20T03:06:08.801Z,4.20
2023-04-20T03:06:41.287Z,3.60
2023-04-20T03:07:15.290Z,3.10
2023-04-20T03:07:46.309Z,3.70
2023-04-20T03:08:18.836Z,3.40
2023-04-20T03:08:51.352Z,3.00
2023-04-20T03:09:23.870Z,3.90
2023-04-20T03:09:56.423Z,4.50
2023-04-20T03:10:28.952Z,4.50
2023-04-20T03:11:01.468Z,4.10
2023-04-20T03:11:33.968Z,4.00
2023-04-20T03:12:06.509Z,3.70
2023-04-20T03:12:39.049Z,4.10
2023-04-20T03:13:11.532Z,3.90
2023-04-20T03:13:44.072Z,3.50
2023-04-20T03:14:16.549Z,3.40
2023-04-20T03:14:49.038Z,3.60
2023-04-20T03:15:21.542Z,3.60
2023-04-20T03:15:54.065Z,3.80
2023-04-20T03:16:26.617Z,4.10
2023-04-20T03:16:59.048Z,3.90
2023-04-20T03:17:31.567Z,3.80
2023-04-20T03:18:04.092Z,3.60
2023-04-20T03:18:36.495Z,3.40
2023-04-20T03:19:09.026Z,4.10
2023-04-20T03:19:41.529Z,3.70
2023-04-20T03:20:14.025Z,3.70
2023-04-20T03:20:46.558Z,3.50
2023-04-20T03:21:19.028Z,3.90
2023-04-20T03:21:51.542Z,3.70
2023-04-20T03:22:24.048Z,3.80
2023-04-20T03:22:56.682Z,3.80
2023-04-20T03:23:29.221Z,3.50
2023-04-20T03:24:01.787Z,3.80
2023-04-20T03:24:34.280Z,4.60
2023-04-20T03:25:06.780Z,4.60
2023-04-20T03:25:39.314Z,4.20
2023-04-20T03:26:11.811Z,4.00
2023-04-20T03:26:44.380Z,4.00
2023-04-20T03:27:16.873Z,4.30
2023-04-20T03:27:49.420Z,4.20
2023-04-20T03:28:21.917Z,3.80
2023-04-20T03:28:54.389Z,3.70
2023-04-20T03:29:26.926Z,3.60
2023-04-20T03:29:59.405Z,3.30
2023-04-20T03:30:31.907Z,3.60
2023-04-20T03:31:04.420Z,4.60
2023-04-20T03:31:36.976Z,3.70
2023-04-20T03:32:09.512Z,3.60
2023-04-20T03:32:42.040Z,4.00
2023-04-20T03:33:14.491Z,3.90
2023-04-20T03:33:47.011Z,3.70
2023-04-20T03:34:19.552Z,4.00
2023-04-20T03:34:52.033Z,3.80
2023-04-20T03:35:24.548Z,3.90
2023-04-20T03:35:57.047Z,3.90
2023-04-20T03:36:29.556Z,3.50
2023-04-20T03:37:02.057Z,3.70
2023-04-20T03:37:34.552Z,4.00
2023-04-20T03:38:07.040Z,4.50
2023-04-20T03:38:39.554Z,4.40
2023-04-20T03:39:12.033Z,4.10
2023-04-20T03:39:44.539Z,4.00
2023-04-20T03:40:17.098Z,3.90
2023-04-20T03:40:49.879Z,4.00
2023-04-20T03:41:22.371Z,3.80
2023-04-20T03:41:54.876Z,3.80
2023-04-20T03:42:27.362Z,4.10
2023-04-20T03:42:59.868Z,4.00
2023-04-20T03:43:32.365Z,4.70
2023-04-20T03:44:04.868Z,4.70
2023-04-20T03:44:37.373Z,4.10
2023-04-20T03:45:09.897Z,4.30
2023-04-20T03:45:42.455Z,3.80
2023-04-20T03:46:14.984Z,4.00
2023-04-20T03:46:47.404Z,3.70
2023-04-20T03:47:19.905Z,4.10
2023-04-20T03:47:52.456Z,4.70
2023-04-20T03:48:24.861Z,4.30
2023-04-20T03:48:57.355Z,3.90
2023-04-20T03:49:29.852Z,4.40
2023-04-20T03:50:02.350Z,5.20
2023-04-20T03:50:34.824Z,4.80
2023-04-20T03:51:07.356Z,4.70
2023-04-20T03:51:39.843Z,4.40
2023-04-20T03:52:12.325Z,4.00
2023-04-20T03:52:44.801Z,3.70
2023-04-20T03:53:17.312Z,4.10
2023-04-20T03:53:49.805Z,4.30
2023-04-20T03:54:22.288Z,4.10
2023-04-20T03:54:54.793Z,4.20
2023-04-20T03:55:27.293Z,3.90
2023-04-20T03:55:59.908Z,4.00
2023-04-20T03:56:32.406Z,3.90
2023-04-20T03:57:04.921Z,4.30
2023-04-20T03:57:37.414Z,4.80
2023-04-20T03:58:09.945Z,3.90
2023-04-20T03:58:42.456Z,4.10
2023-04-20T03:59:15.034Z,4.30
2023-04-20T03:59:47.458Z,4.40
2023-04-20T04:00:19.951Z,4.50
2023-04-20T04:00:52.499Z,4.20
2023-04-20T04:01:24.967Z,4.10
2023-04-20T04:01:57.507Z,4.10
2023-04-20T04:02:30.138Z,4.40
2023-04-20T04:03:02.677Z,4.30
2023-04-20T04:03:35.148Z,4.40
2023-04-20T04:04:07.844Z,4.50
2023-04-20T04:04:40.091Z,4.20
2023-04-20T04:05:12.513Z,4.30
2023-04-20T04:05:44.998Z,4.50
2023-04-20T04:06:17.492Z,4.30
2023-04-20T04:06:49.999Z,4.20
2023-04-20T04:07:22.511Z,4.30
2023-04-20T04:07:55.028Z,4.00
2023-04-20T04:08:27.522Z,4.40
2023-04-20T04:09:00.017Z,4.30
2023-04-20T04:09:32.512Z,3.70
2023-04-20T04:10:05.065Z,4.90
2023-04-20T04:10:37.550Z,5.10
2023-04-20T04:11:10.063Z,4.00
2023-04-20T04:11:42.555Z,3.80
2023-04-20T04:12:15.061Z,4.00
2023-04-20T04:12:47.567Z,4.40
2023-04-20T04:13:20.107Z,4.50
2023-04-20T04:13:52.622Z,4.40
2023-04-20T04:14:25.120Z,4.50
2023-04-20T04:14:57.641Z,4.50
2023-04-20T04:15:30.135Z,4.80
2023-04-20T04:16:02.683Z,4.50
2023-04-20T04:16:35.255Z,4.00
2023-04-20T04:17:07.835Z,4.00
2023-04-20T04:17:40.302Z,4.00
2023-04-20T04:18:12.717Z,4.00
2023-04-20T04:18:45.227Z,4.70
2023-04-20T04:19:17.965Z,4.80
2023-04-20T04:19:50.247Z,4.80
2023-04-20T04:20:22.779Z,4.60
2023-04-20T04:20:55.284Z,4.30
2023-04-20T04:21:27.789Z,4.00
2023-04-20T04:22:00.294Z,3.80
2023-04-20T04:22:32.791Z,3.80
2023-04-20T04:23:05.298Z,4.30
2023-04-20T04:23:37.811Z,4.70
2023-04-20T04:24:17.363Z,4.40
2023-04-20T04:24:49.835Z,4.40
2023-04-20T04:25:22.336Z,4.30
2023-04-20T04:25:54.813Z,4.10
2023-04-20T04:26:27.285Z,4.20
2023-04-20T04:26:59.779Z,4.50
2023-04-20T04:27:32.278Z,4.40
2023-04-20T04:28:04.767Z,4.20
2023-04-20T04:28:37.244Z,3.80
2023-04-20T04:29:09.739Z,4.40
2023-04-20T04:29:42.277Z,4.40
2023-04-20T04:30:14.785Z,4.20
2023-04-20T04:30:47.293Z,4.20
2023-04-20T04:31:19.832Z,4.90
2023-04-20T04:31:52.325Z,5.60
2023-04-20T04:32:24.821Z,5.30
2023-04-20T04:32:57.303Z,4.40
2023-04-20T04:33:29.772Z,3.90
2023-04-20T04:34:02.297Z,4.20
2023-04-20T04:34:34.834Z,4.40
2023-04-20T04:35:07.332Z,5.40
2023-04-20T04:35:39.885Z,6.00
2023-04-20T04:36:12.310Z,5.20
2023-04-20T04:36:44.822Z,4.70
2023-04-20T04:37:17.312Z,4.90
2023-04-20T04:37:49.812Z,4.60
2023-04-20T04:38:22.299Z,4.70
2023-04-20T04:38:54.797Z,4.30
2023-04-20T04:39:27.299Z,4.00
2023-04-20T04:39:59.786Z,4.30
2023-04-20T04:40:32.341Z,4.30
2023-04-20T04:41:04.889Z,4.10
2023-04-20T04:41:37.377Z,4.00
2023-04-20T04:42:09.884Z,4.10
2023-04-20T04:42:42.360Z,4.30
2023-04-20T04:43:14.888Z,4.60
2023-04-20T04:43:47.348Z,4.20
2023-04-20T04:44:19.884Z,4.10
2023-04-20T04:44:52.385Z,4.10
2023-04-20T04:45:24.875Z,4.10
2023-04-20T04:45:57.395Z,3.80
2023-04-20T04:46:29.937Z,3.80
2023-04-20T04:47:02.376Z,4.00
2023-04-20T04:47:34.915Z,4.20
2023-04-20T04:48:08.932Z,4.10
2023-04-20T04:48:39.849Z,3.60
2023-04-20T04:49:13.296Z,4.10
2023-04-20T04:49:45.821Z,4.60
2023-04-20T04:50:18.304Z,4.90
2023-04-20T04:50:50.831Z,4.90
2023-04-20T04:51:23.297Z,5.60
2023-04-20T04:51:55.809Z,5.80
2023-04-20T04:52:28.358Z,5.00
2023-04-20T04:53:00.856Z,5.50
2023-04-20T04:53:33.365Z,4.60
2023-04-20T04:54:05.841Z,3.90
2023-04-20T04:54:38.387Z,4.40
2023-04-20T04:55:10.882Z,4.20
2023-04-20T04:55:43.356Z,4.10
2023-04-20T04:56:15.878Z,4.50
2023-04-20T04:56:48.380Z,4.40
2023-04-20T04:57:20.875Z,4.60
2023-04-20T04:57:53.406Z,4.50
2023-04-20T04:58:25.884Z,4.50
2023-04-20T04:58:58.385Z,4.30
2023-04-20T04:59:30.847Z,4.50
2023-04-20T05:00:03.359Z,4.40
2023-04-20T05:00:35.854Z,4.30
2023-04-20T05:01:08.349Z,4.10
2023-04-20T05:01:40.850Z,4.20
2023-04-20T05:02:13.390Z,4.50
2023-04-20T05:02:45.986Z,4.30
2023-04-20T05:03:18.503Z,5.30
2023-04-20T05:03:50.928Z,5.10
2023-04-20T05:04:23.487Z,4.60
2023-04-20T05:04:55.909Z,4.70
2023-04-20T05:05:28.372Z,4.80
2023-04-20T05:06:00.884Z,4.60
2023-04-20T05:06:33.391Z,4.40
2023-04-20T05:07:05.869Z,4.10
2023-04-20T05:07:38.587Z,3.90
2023-04-20T05:08:10.856Z,3.40
2023-04-20T05:08:43.385Z,3.90
2023-04-20T05:09:16.099Z,4.40
2023-04-20T05:09:48.413Z,4.10
2023-04-20T05:10:20.957Z,4.20
2023-04-20T05:10:53.465Z,5.10
2023-04-20T05:11:25.998Z,4.90
2023-04-20T05:11:58.477Z,4.80
2023-04-20T05:12:30.985Z,4.20
2023-04-20T05:13:03.496Z,4.00
2023-04-20T05:13:36.029Z,4.80
2023-04-20T05:14:08.523Z,4.30
2023-04-20T05:14:41.020Z,3.90
2023-04-20T05:15:13.499Z,4.20
2023-04-20T05:15:46.003Z,4.10
2023-04-20T05:16:18.515Z,4.10
2023-04-20T05:16:50.973Z,4.30
2023-04-20T05:17:23.524Z,4.10
2023-04-20T05:17:56.003Z,4.50
2023-04-20T05:18:28.433Z,4.30
2023-04-20T05:19:00.930Z,4.00
2023-04-20T05:19:33.550Z,4.10
2023-04-20T05:20:06.283Z,4.40
2023-04-20T05:20:38.794Z,4.10
2023-04-20T05:21:11.302Z,3.80
2023-04-20T05:21:43.812Z,3.70
2023-04-20T05:22:16.303Z,3.50
2023-04-20T05:22:48.808Z,4.50
2023-04-20T05:23:21.294Z,4.60
2023-04-20T05:23:53.784Z,3.60
2023-04-20T05:24:26.321Z,4.20
2023-04-20T05:24:58.766Z,4.60
2023-04-20T05:25:31.279Z,4.50
2023-04-20T05:26:03.809Z,4.40
2023-04-20T05:26:36.296Z,4.30
2023-04-20T05:27:08.800Z,4.40
2023-04-20T05:27:41.290Z,4.20
2023-04-20T05:28:13.801Z,3.90
2023-04-20T05:28:46.341Z,3.90
2023-04-20T05:29:18.901Z,4.70
2023-04-20T05:29:51.358Z,4.00
2023-04-20T05:30:23.869Z,3.50
2023-04-20T05:30:56.353Z,3.80
2023-04-20T05:31:28.870Z,4.10
2023-04-20T05:32:01.381Z,4.20
2023-04-20T05:32:33.866Z,4.30
2023-04-20T05:33:06.344Z,4.30
2023-04-20T05:33:38.821Z,4.50
2023-04-20T05:34:11.308Z,4.50
2023-04-20T05:34:43.816Z,4.40
2023-04-20T05:35:16.307Z,4.50
2023-04-20T05:35:48.823Z,3.80
2023-04-20T05:36:21.330Z,3.50
2023-04-20T05:36:53.834Z,3.90
2023-04-20T05:37:26.349Z,4.10
2023-04-20T05:37:58.884Z,4.90
2023-04-20T05:38:31.371Z,5.20
2023-04-20T05:39:03.862Z,4.50
2023-04-20T05:39:36.381Z,4.10
2023-04-20T05:40:08.836Z,4.10
2023-04-20T05:40:41.367Z,4.80
2023-04-20T05:41:13.937Z,4.30
2023-04-20T05:41:46.430Z,3.60
2023-04-20T05:42:18.961Z,3.50
2023-04-20T05:42:51.443Z,3.80
2023-04-20T05:43:23.968Z,3.50
2023-04-20T05:43:56.442Z,3.70
2023-04-20T05:44:28.973Z,4.10
2023-04-20T05:45:01.501Z,3.70
2023-04-20T05:45:34.022Z,4.10
2023-04-20T05:46:06.542Z,4.00
2023-04-20T05:46:39.033Z,3.80
2023-04-20T05:47:11.521Z,3.90
2023-04-20T05:47:44.349Z,4.20
2023-04-20T05:48:16.814Z,4.10
2023-04-20T05:48:49.330Z,3.70
2023-04-20T05:49:21.824Z,3.30
2023-04-20T05:49:54.377Z,3.60
2023-04-20T05:50:26.848Z,3.50
2023-04-20T05:50:59.437Z,3.70
2023-04-20T05:51:31.928Z,4.00
2023-04-20T05:52:04.433Z,3.50
2023-04-20T05:52:36.932Z,3.00
2023-04-20T05:53:09.485Z,3.30
2023-04-20T05:53:41.933Z,3.50
2023-04-20T05:54:14.415Z,3.60
2023-04-20T05:54:46.900Z,3.60
2023-04-20T05:55:20.631Z,3.70
2023-04-20T05:55:51.922Z,3.70
2023-04-20T05:56:24.413Z,3.70
2023-04-20T05:56:56.902Z,3.70
2023-04-20T05:57:29.414Z,3.60
2023-04-20T05:58:01.911Z,3.80
2023-04-20T05:58:34.430Z,3.60
2023-04-20T05:59:06.910Z,4.00
2023-04-20T05:59:39.426Z,4.20
2023-04-20T06:00:11.925Z,3.70
2023-04-20T06:00:44.496Z,3.60
2023-04-20T06:01:16.958Z,3.70
2023-04-20T06:01:49.451Z,3.80
2023-04-20T06:02:22.030Z,4.20
2023-04-20T06:02:54.614Z,4.10
2023-04-20T06:03:27.148Z,3.90
2023-04-20T06:03:59.728Z,3.60
2023-04-20T06:04:32.169Z,3.80
2023-04-20T06:05:04.496Z,4.10
2023-04-20T06:05:36.994Z,3.70
2023-04-20T06:06:09.440Z,3.90
2023-04-20T06:06:41.968Z,4.20
2023-04-20T06:07:14.477Z,4.40
2023-04-20T06:07:46.965Z,4.10
2023-04-20T06:08:19.465Z,3.90
2023-04-20T06:08:51.933Z,4.10
2023-04-20T06:09:24.441Z,3.90
2023-04-20T06:09:56.940Z,3.50
2023-04-20T06:10:29.507Z,4.00
2023-04-20T06:11:01.974Z,4.50
2023-04-20T06:11:34.466Z,4.20
2023-04-20T06:12:06.948Z,3.70
2023-04-20T06:12:39.465Z,4.10
2023-04-20T06:13:11.968Z,4.10
2023-04-20T06:13:44.487Z,4.10
2023-04-20T06:14:17.264Z,4.50
2023-04-20T06:14:49.464Z,4.20
2023-04-20T06:15:21.946Z,3.90
2023-04-20T06:15:54.518Z,3.90
2023-04-20T06:16:27.128Z,4.00
2023-04-20T06:16:59.427Z,4.30
2023-04-20T06:17:31.976Z,4.20
2023-04-20T06:18:04.508Z,3.70
2023-04-20T06:18:36.917Z,3.50
2023-04-20T06:19:09.416Z,4.20
2023-04-20T06:19:41.910Z,4.20
2023-04-20T06:20:14.439Z,4.70
2023-04-20T06:20:46.936Z,4.80
2023-04-20T06:21:19.439Z,4.20
2023-04-20T06:21:51.937Z,3.90
2023-04-20T06:22:24.478Z,4.00
2023-04-20T06:22:56.985Z,4.10
2023-04-20T06:23:29.498Z,4.50
2023-04-20T06:24:02.016Z,4.10
2023-04-20T06:24:34.529Z,4.50
2023-04-20T06:25:07.049Z,4.90
2023-04-20T06:25:39.535Z,4.80
2023-04-20T06:26:12.072Z,4.30
2023-04-20T06:26:44.610Z,4.20
2023-04-20T06:27:17.065Z,3.80
2023-04-20T06:27:50.736Z,4.20
2023-04-20T06:28:22.083Z,4.20
2023-04-20T06:28:54.673Z,4.10
2023-04-20T06:29:27.173Z,4.00
2023-04-20T06:29:59.653Z,4.20
2023-04-20T06:30:32.226Z,3.80
2023-04-20T06:31:04.734Z,4.20
2023-04-20T06:31:37.352Z,5.00
2023-04-20T06:32:09.715Z,5.20
2023-04-20T06:32:42.294Z,4.80
2023-04-20T06:33:14.699Z,4.70
2023-04-20T06:33:47.181Z,4.20
2023-04-20T06:34:19.661Z,4.20
2023-04-20T06:34:52.135Z,4.40
2023-04-20T06:35:24.678Z,4.30
2023-04-20T06:35:57.167Z,4.70
2023-04-20T06:36:29.659Z,5.10
2023-04-20T06:37:02.147Z,4.80
2023-04-20T06:37:34.654Z,4.70
2023-04-20T06:38:07.164Z,4.70
2023-04-20T06:38:39.671Z,4.80
2023-04-20T06:39:12.248Z,5.20
2023-04-20T06:39:44.961Z,4.90
2023-04-20T06:40:17.267Z,4.60
2023-04-20T06:40:49.732Z,4.60
2023-04-20T06:41:22.222Z,4.50
2023-04-20T06:41:54.739Z,4.90
2023-04-20T06:42:27.263Z,4.70
2023-04-20T06:42:59.731Z,4.30
2023-04-20T06:43:32.191Z,4.50
2023-04-20T06:44:04.683Z,4.60
2023-04-20T06:44:37.176Z,4.70
2023-04-20T06:45:09.693Z,4.30
2023-04-20T06:45:42.193Z,4.10
2023-04-20T06:46:14.773Z,4.90
2023-04-20T06:46:47.273Z,4.90
2023-04-20T06:47:19.797Z,4.90
2023-04-20T06:47:52.226Z,4.70
2023-04-20T06:48:32.107Z,4.40
2023-04-20T06:48:57.234Z,4.10
2023-04-20T06:49:29.746Z,4.30
2023-04-20T06:50:02.267Z,4.50
2023-04-20T06:50:34.754Z,4.30
2023-04-20T06:51:07.279Z,4.40
2023-04-20T06:51:39.784Z,4.40
2023-04-20T06:52:12.255Z,4.20
2023-04-20T06:52:44.761Z,3.90
2023-04-20T06:53:17.251Z,4.00
2023-04-20T06:53:49.741Z,5.40
2023-04-20T06:54:22.277Z,5.60
2023-04-20T06:54:54.775Z,5.00
2023-04-20T06:55:27.265Z,4.60
2023-04-20T06:55:59.755Z,3.90
2023-04-20T06:56:33.586Z,4.10
2023-04-20T06:57:04.744Z,4.40
2023-04-20T06:57:37.259Z,4.90
2023-04-20T06:58:09.744Z,5.20
2023-04-20T06:58:42.349Z,4.30
2023-04-20T06:59:14.857Z,4.80
2023-04-20T06:59:47.359Z,4.60
2023-04-20T07:00:19.901Z,4.70
2023-04-20T07:00:52.595Z,4.40
2023-04-20T07:01:24.893Z,4.50
2023-04-20T07:01:57.434Z,4.50
2023-04-20T07:02:29.990Z,4.30
2023-04-20T07:03:02.533Z,4.90
2023-04-20T07:03:35.019Z,5.20
2023-04-20T07:04:07.639Z,5.00
2023-04-20T07:04:39.979Z,4.10
2023-04-20T07:05:12.466Z,3.80
2023-04-20T07:05:44.922Z,4.20
2023-04-20T07:06:17.444Z,4.00
2023-04-20T07:06:51.755Z,4.40
2023-04-20T07:07:22.464Z,4.80
2023-04-20T07:07:54.979Z,4.60
2023-04-20T07:08:27.461Z,4.40
2023-04-20T07:09:00.031Z,4.70
2023-04-20T07:09:32.532Z,4.60
2023-04-20T07:10:05.081Z,4.20
2023-04-20T07:10:37.625Z,4.40
2023-04-20T07:11:10.131Z,4.60
2023-04-20T07:11:42.627Z,4.40
2023-04-20T07:12:15.156Z,4.50
2023-04-20T07:12:47.643Z,5.10